| time (UTC) | temp F | wind direction | speed knots | gust knots | rain 1hr in | rain 24hr in | rain mn in | humidity % | barometer mb |
| 20260504041516 | 45 | 250 | 1.7 | 7.0 | 0.00 | 0.00 | 0.00 | 57 | 1013.9 |
| 20260504040018 | 46 | 262 | 0.9 | 5.2 | 0.00 | 0.00 | 0.00 | 56 | 1013.9 |
| 20260504034512 | 46 | 268 | 1.7 | 7.0 | 0.00 | 0.00 | 0.00 | 56 | 1013.9 |
| 20260504033111 | 46 | 241 | 1.7 | 7.0 | 0.00 | 0.00 | 0.00 | 55 | 1014.1 |
| 20260504031511 | 46 | 258 | 1.7 | 6.1 | 0.00 | 0.00 | 0.00 | 55 | 1014.2 |
| 20260504030008 | 46 | 262 | 1.7 | 6.1 | 0.00 | 0.00 | 0.00 | 54 | 1014.3 |
| 20260504024506 | 47 | 268 | 2.6 | 6.1 | 0.00 | 0.00 | 0.00 | 54 | 1014.3 |
| 20260504023105 | 46 | 264 | 1.7 | 4.3 | 0.00 | 0.00 | 0.00 | 54 | 1014.3 |
| 20260504021504 | 47 | 289 | 0.9 | 4.3 | 0.00 | 0.00 | 0.00 | 53 | 1014.4 |
| 20260504020003 | 47 | 278 | 0.9 | 3.5 | 0.00 | 0.00 | 0.00 | 53 | 1014.3 |
| 20260504014504 | 47 | 310 | 0.9 | 6.1 | 0.00 | 0.00 | 0.00 | 52 | 1014.2 |
| 20260504013002 | 48 | 276 | 1.7 | 5.2 | 0.00 | 0.00 | 0.00 | 51 | 1014.1 |
| 20260504011503 | 48 | 247 | 2.6 | 6.1 | 0.00 | 0.00 | 0.00 | 51 | 1014.0 |
| 20260504010002 | 48 | 278 | 1.7 | 5.2 | 0.00 | 0.00 | 0.00 | 50 | 1014.2 |
| 20260504004505 | 48 | 261 | 0.9 | 3.5 | 0.00 | 0.00 | 0.00 | 49 | 1014.2 |
| 20260504003101 | 49 | 234 | 0.9 | 4.3 | 0.00 | 0.00 | 0.00 | 48 | 1014.1 |
| 20260504001602 | 49 | 266 | 1.7 | 6.1 | 0.00 | 0.00 | 0.00 | 48 | 1014.0 |
| 20260504000101 | 50 | 305 | 1.7 | 7.0 | 0.00 | 0.00 | 0.00 | 48 | 1014.0 |
| 20260503234557 | 50 | 272 | 2.6 | 7.8 | 0.00 | 0.00 | 0.00 | 47 | 1014.1 |
| 20260503233057 | 50 | 258 | 3.5 | 7.8 | 0.00 | 0.00 | 0.00 | 46 | 1013.9 |
| 20260503231604 | 50 | 290 | 1.7 | 5.2 | 0.00 | 0.00 | 0.00 | 46 | 1013.7 |
| 20260503230110 | 51 | 278 | 2.6 | 8.7 | 0.00 | 0.00 | 0.00 | 45 | 1013.9 |
| 20260503224603 | 50 | 296 | 6.1 | 13.9 | 0.00 | 0.00 | 0.00 | 44 | 1013.9 |
| 20260503223055 | 52 | 263 | 4.3 | 7.8 | 0.00 | 0.00 | 0.00 | 43 | 1013.9 |
| 20260503221601 | 51 | 302 | 2.6 | 7.8 | 0.00 | 0.00 | 0.00 | 46 | 1013.9 |
| 20260503220055 | 51 | 277 | 3.5 | 7.8 | 0.00 | 0.00 | 0.00 | 44 | 1013.9 |
| 20260503214554 | 51 | 295 | 3.5 | 9.6 | 0.00 | 0.00 | 0.00 | 45 | 1013.8 |
| 20260503213100 | 51 | 328 | 4.3 | 8.7 | 0.00 | 0.00 | 0.00 | 45 | 1013.5 |
| 20260503211605 | 51 | 292 | 3.5 | 9.6 | 0.00 | 0.00 | 0.00 | 45 | 1013.7 |
| 20260503210046 | 50 | 343 | 5.2 | 11.3 | 0.00 | 0.00 | 0.00 | 45 | 1013.7 |
| 20260503204546 | 51 | 274 | 4.3 | 9.6 | 0.00 | 0.00 | 0.00 | 44 | 1013.8 |
| 20260503203048 | 50 | 311 | 2.6 | 7.0 | 0.00 | 0.00 | 0.00 | 45 | 1013.9 |
| 20260503201542 | 50 | 320 | 6.1 | 11.3 | 0.00 | 0.00 | 0.00 | 44 | 1013.7 |
| 20260503200053 | 50 | 310 | 2.6 | 7.8 | 0.00 | 0.00 | 0.00 | 45 | 1014.1 |
| 20260503194539 | 50 | 309 | 3.5 | 9.6 | 0.00 | 0.00 | 0.00 | 45 | 1014.3 |
| 20260503193040 | 50 | 324 | 5.2 | 12.2 | 0.00 | 0.00 | 0.00 | 45 | 1014.6 |
| 20260503191544 | 49 | 323 | 2.6 | 8.7 | 0.00 | 0.00 | 0.00 | 49 | 1014.8 |
| 20260503190039 | 48 | 315 | 6.1 | 11.3 | 0.00 | 0.00 | 0.00 | 49 | 1015.0 |
| 20260503184543 | 48 | 314 | 4.3 | 10.4 | 0.00 | 0.00 | 0.00 | 48 | 1014.8 |
| 20260503183040 | 48 | 293 | 3.5 | 9.6 | 0.00 | 0.00 | 0.00 | 49 | 1014.9 |
| 20260503181528 | 49 | 296 | 5.2 | 9.6 | 0.00 | 0.00 | 0.00 | 47 | 1015.0 |
| 20260503180043 | 48 | 322 | 6.1 | 11.3 | 0.00 | 0.00 | 0.00 | 47 | 1015.2 |
| 20260503174541 | 48 | 305 | 5.2 | 11.3 | 0.00 | 0.00 | 0.00 | 47 | 1015.4 |
| 20260503173035 | 49 | 320 | 4.3 | 8.7 | 0.00 | 0.00 | 0.00 | 47 | 1015.3 |
| 20260503171528 | 48 | 289 | 6.1 | 12.2 | 0.00 | 0.00 | 0.00 | 46 | 1015.3 |
| 20260503081541 | 31 | 304 | 2.6 | 4.3 | 0.00 | 0.00 | 0.00 | 84 | 1015.6 |
| 20260503071528 | 31 | 308 | 1.7 | 7.0 | 0.00 | 0.00 | 0.00 | 83 | 1015.6 |
| 20260503054521 | 32 | 319 | 2.6 | 7.0 | 0.00 | 0.00 | 0.00 | 81 | 1016.0 |
| 20260503053020 | 32 | 318 | 2.6 | 4.3 | 0.00 | 0.00 | 0.00 | 81 | 1016.1 |
| 20260503051531 | 32 | 318 | 2.6 | 4.3 | 0.00 | 0.00 | 0.00 | 80 | 1016.2 |
| 20260503050014 | 32 | 335 | 1.7 | 4.3 | 0.00 | 0.00 | 0.00 | 79 | 1016.4 |
| 20260503044514 | 33 | 316 | 0.9 | 3.5 | 0.00 | 0.00 | 0.00 | 78 | 1016.5 |
| 20260503043014 | 33 | 315 | 1.7 | 3.5 | 0.00 | 0.00 | 0.00 | 78 | 1016.6 |